Tabor City, North Carolina
Current Conditions -  °F | °C
As of 11:15 AM on Monday 26 Jan 2015 (Local Time) from KCPC Reporting Station
Scattered Clouds Scattered Clouds  
Wind Chill: 53°   Ceiling: Unl
Heat Index: 53°   Visibility: 10mi
Dew Point: 42°   Wind: 3mph
Humidity: 66%   Direction: 300°WNW
Pressure: 29.63"   Gusts: NA
Location:  34.15°N, 78.88°W
Report Text: KCPC 261615Z AUTO 30003KT 10SM SCT065 12/06 A2963 RMK AO2 T01170055
Loading
Personal Weather Stations






























Interactive Weather Map New forecast layout! Learn more

10-Day Weather Forecast

Advertisements
Track Severe Weather on mobile